Terminal Aerodrome Forecast
Issued by NWS

Home | Current Version | Previous Version | Text Only | Print | Product List | Glossary On
Versions: 1 2 3 4 5 6 7 8 9 10 11 12 13 14 15 16 17 18
000
FTUS46 KLOX 291128
TAFSBP
TAF
KSBP 291128Z 2912/3012 VRB03KT 1/4SM FG VV002
     FM291500 VRB03KT 3SM BR OVC003
     FM291700 VRB03KT P6SM SKC
     FM292000 31012KT P6SM SKC
     FM300300 VRB03KT P6SM SKC
     FM300700 VRB03KT 2SM BR OVC004=

USA.gov is the U.S. government's official web portal to all federal, state and local government web resources and services.